Time;durP1;ratioP1;P1;durP2;ratioP2;P2;SDS_P1;SDS_P2;PMS_P1;PMS_P2;Temp;Humidity;BMP_temperature;BMP_pressure;BME280_temperature;BME280_humidity;BME280_pressure;Samples;Min_cycle;Max_cycle;Signal;HPM_P1;HPM_P2
2022/07/19 00:01:33;;;;;;;3.97;1.35;;;19.30;91.40;;;18.49;100.00;97885.09;5026213;28;20076;-65
2022/07/19 00:04:04;;;;;;;2.60;1.55;;;19.20;91.60;;;18.55;100.00;97879.41;5022700;28;20243;-64
2022/07/19 00:06:37;;;;;;;4.40;1.35;;;19.10;91.70;;;18.52;100.00;97882.28;5027110;28;20721;-65
2022/07/19 00:09:05;;;;;;;2.83;1.10;;;19.10;91.90;;;18.66;100.00;97877.84;5025914;28;20156;-65
2022/07/19 00:11:34;;;;;;;2.60;1.23;;;19.00;91.90;;;18.64;100.00;97882.34;5022182;28;20129;-64
2022/07/19 00:14:04;;;;;;;5.15;1.33;;;19.00;92.10;;;18.58;100.00;97881.81;5024988;28;20064;-66
2022/07/19 00:16:32;;;;;;;3.55;1.70;;;18.90;92.50;;;18.43;100.00;97888.16;5026227;28;20541;-65
2022/07/19 00:18:59;;;;;;;3.10;1.40;;;18.80;92.50;;;18.58;100.00;97889.72;5025439;28;20053;-66
2022/07/19 00:21:25;;;;;;;5.25;1.30;;;18.80;92.80;;;18.19;100.00;97885.44;5024683;28;20132;-64
2022/07/19 00:23:52;;;;;;;3.97;1.42;;;18.80;92.90;;;18.11;100.00;97887.75;5025667;28;20592;-66
2022/07/19 00:26:19;;;;;;;2.95;1.60;;;18.70;93.40;;;18.18;100.00;97891.66;5008091;28;20063;-65
2022/07/19 00:28:46;;;;;;;4.90;2.15;;;18.60;93.60;;;17.72;100.00;97892.06;5024586;28;20077;-65
2022/07/19 00:31:14;;;;;;;6.53;1.40;;;18.50;93.60;;;17.72;100.00;97897.31;5024437;28;20053;-65
2022/07/19 00:33:41;;;;;;;4.00;1.52;;;18.40;93.90;;;17.59;100.00;97894.69;5024433;28;20049;-66
2022/07/19 00:36:08;;;;;;;4.78;1.40;;;18.30;94.10;;;17.35;100.00;97895.34;5025235;28;20433;-66
2022/07/19 00:38:35;;;;;;;2.65;1.10;;;18.20;94.40;;;17.30;100.00;97886.94;5025539;28;20447;-65
2022/07/19 00:41:02;;;;;;;3.35;1.40;;;18.10;94.70;;;17.31;100.00;97893.00;5024195;28;20142;-65
2022/07/19 00:43:29;;;;;;;4.20;1.42;;;18.10;95.30;;;17.40;100.00;97889.78;5024299;28;20095;-66
2022/07/19 00:45:56;;;;;;;4.20;1.63;;;18.00;95.60;;;17.44;100.00;97887.81;5023948;28;20431;-65
2022/07/19 00:48:26;;;;;;;2.90;1.40;;;18.00;95.80;;;17.43;100.00;97887.00;5025416;28;20136;-65
2022/07/19 00:50:53;;;;;;;2.78;1.10;;;18.00;96.20;;;17.63;100.00;97879.56;5026230;28;20077;-65
2022/07/19 00:53:21;;;;;;;3.47;1.60;;;18.00;96.50;;;17.46;100.00;97889.41;5025564;28;20127;-66
2022/07/19 00:55:50;;;;;;;3.25;1.80;;;18.00;96.80;;;17.41;100.00;97888.03;5021506;28;20124;-64
2022/07/19 00:58:18;;;;;;;2.90;1.48;;;17.90;97.10;;;17.34;100.00;97890.22;5009311;28;20088;-65
2022/07/19 01:00:45;;;;;;;5.03;1.55;;;17.90;97.50;;;17.31;100.00;97888.63;5004849;28;20415;-65
2022/07/19 01:03:13;;;;;;;3.95;1.73;;;17.90;97.70;;;17.30;100.00;97891.34;5027340;28;20767;-66
2022/07/19 01:05:40;;;;;;;3.55;1.58;;;17.80;97.90;;;17.31;100.00;97883.38;5028720;28;20073;-66
2022/07/19 01:08:07;;;;;;;3.28;1.42;;;17.80;98.10;;;17.25;100.00;97889.03;5026970;28;20140;-66
2022/07/19 01:10:37;;;;;;;5.68;1.45;;;17.70;98.30;;;17.12;100.00;97883.72;5010241;28;20047;-65
2022/07/19 01:13:04;;;;;;;5.13;1.50;;;17.70;98.30;;;17.02;100.00;97887.88;5027819;28;20083;-66
2022/07/19 01:15:31;;;;;;;2.47;1.35;;;17.60;98.40;;;16.83;100.00;97885.59;5011204;28;20416;-66
2022/07/19 01:18:01;;;;;;;2.17;1.30;;;17.50;98.70;;;17.04;100.00;97888.63;5028051;28;20075;-66
2022/07/19 01:20:28;;;;;;;5.47;1.65;;;17.60;99.20;;;16.83;100.00;97887.34;5011088;28;20125;-65
2022/07/19 01:22:57;;;;;;;6.47;1.83;;;17.50;99.30;;;16.86;100.00;97887.19;5030320;28;20057;-65
2022/07/19 01:25:31;;;;;;;4.65;1.75;;;17.50;99.40;;;16.53;100.00;97875.19;5027470;28;20045;-66
2022/07/19 01:27:59;;;;;;;3.30;1.63;;;17.40;99.60;;;16.51;100.00;97879.69;5025626;28;20053;-65
2022/07/19 01:30:27;;;;;;;6.93;1.35;;;17.30;99.90;;;16.50;100.00;97873.59;5027651;28;20461;-65
2022/07/19 01:32:56;;;;;;;3.72;1.17;;;17.20;99.90;;;16.59;100.00;97877.44;5027718;28;20141;-65
2022/07/19 01:35:26;;;;;;;2.53;1.42;;;17.20;99.90;;;16.59;100.00;97879.22;5025226;28;20049;-66
2022/07/19 01:37:57;;;;;;;2.17;1.02;;;17.20;99.90;;;16.66;100.00;97877.91;5011330;28;20129;-65
2022/07/19 01:40:24;;;;;;;3.50;1.33;;;17.20;99.90;;;16.82;100.00;97877.81;5026243;28;20049;-66
2022/07/19 01:42:54;;;;;;;6.05;1.38;;;17.20;99.90;;;16.90;100.00;97873.78;5011392;28;20160;-64
2022/07/19 01:45:24;;;;;;;3.63;1.92;;;17.20;99.90;;;16.92;100.00;97878.91;5022586;28;20087;-64
2022/07/19 01:47:58;;;;;;;3.17;1.40;;;17.10;99.90;;;16.76;100.00;97879.00;5026631;28;20099;-64
2022/07/19 01:50:25;;;;;;;3.50;1.33;;;17.10;99.90;;;16.85;100.00;97869.75;5010213;28;20171;-65
2022/07/19 01:52:55;;;;;;;3.45;1.23;;;17.10;99.90;;;16.83;100.00;97877.72;5025717;28;20617;-65
2022/07/19 01:55:25;;;;;;;7.28;1.42;;;17.10;99.90;;;16.80;100.00;97872.66;5027377;28;20121;-65
2022/07/19 01:57:52;;;;;;;5.60;1.42;;;17.10;99.90;;;16.77;100.00;97862.34;5024678;28;20136;-65
2022/07/19 02:00:22;;;;;;;5.72;1.50;;;17.00;99.90;;;16.63;100.00;97871.06;5025083;28;20167;-65
2022/07/19 02:02:49;;;;;;;3.38;1.30;;;17.00;99.90;;;16.58;100.00;97864.41;5028499;28;20046;-65
2022/07/19 02:05:16;;;;;;;2.83;1.40;;;17.00;99.90;;;16.34;100.00;97858.94;5025964;28;20052;-64
2022/07/19 02:07:49;;;;;;;4.35;1.42;;;17.00;99.90;;;16.24;100.00;97866.53;5027082;28;20045;-65
2022/07/19 02:10:17;;;;;;;3.00;1.20;;;16.90;99.90;;;16.17;100.00;97854.72;5026197;28;20052;-65
2022/07/19 02:12:47;;;;;;;3.97;1.08;;;16.80;99.90;;;16.09;100.00;97856.03;5025826;28;20115;-65
2022/07/19 02:15:14;;;;;;;6.85;1.42;;;16.70;99.90;;;15.92;100.00;97848.38;5026194;28;20228;-66
2022/07/19 02:17:42;;;;;;;3.53;1.70;;;16.70;99.90;;;15.75;100.00;97851.97;5026454;28;20050;-65
2022/07/19 02:20:10;;;;;;;5.43;1.33;;;16.60;99.90;;;15.74;100.00;97849.47;5025069;28;20508;-65
2022/07/19 02:22:37;;;;;;;3.85;1.50;;;16.50;99.90;;;15.75;100.00;97846.72;5025766;28;20081;-64
2022/07/19 02:25:05;;;;;;;5.07;1.65;;;16.50;99.90;;;15.74;100.00;97846.84;5025822;28;20136;-65
2022/07/19 02:27:32;;;;;;;4.18;1.60;;;16.40;99.90;;;15.80;100.00;97847.28;5026099;28;20069;-66
2022/07/19 02:29:59;;;;;;;4.32;1.45;;;16.40;99.90;;;15.71;100.00;97845.22;5025379;28;20167;-66
2022/07/19 02:32:26;;;;;;;3.00;1.42;;;16.40;99.90;;;15.68;100.00;97853.22;5025905;28;20069;-65
2022/07/19 02:34:54;;;;;;;3.40;1.30;;;16.40;99.90;;;15.71;100.00;97847.84;5013949;28;20075;-65
2022/07/19 02:37:21;;;;;;;3.55;1.42;;;16.30;99.90;;;15.73;100.00;97845.16;5027748;28;20045;-65
2022/07/19 02:39:48;;;;;;;4.25;1.40;;;16.30;99.90;;;15.70;100.00;97846.13;5022543;28;20050;-65
2022/07/19 02:42:18;;;;;;;3.88;1.45;;;16.30;99.90;;;15.60;100.00;97847.59;5025534;28;20140;-65
2022/07/19 02:44:45;;;;;;;2.97;1.50;;;16.30;99.90;;;15.50;100.00;97849.09;5026417;28;20057;-65
2022/07/19 02:47:26;;;;;;;4.80;1.20;;;16.30;99.90;;;15.51;100.00;97854.22;5019232;28;20060;-66
2022/07/19 02:49:56;;;;;;;2.22;1.30;;;16.20;99.90;;;15.64;100.00;97842.09;5025244;28;20064;-65
2022/07/19 02:52:29;;;;;;;5.53;1.48;;;16.30;99.90;;;15.63;100.00;97844.81;5027324;28;20088;-66
2022/07/19 02:54:56;;;;;;;2.50;1.30;;;16.30;99.90;;;15.59;100.00;97845.94;5026750;28;20049;-65
2022/07/19 02:57:23;;;;;;;4.00;1.52;;;16.20;99.90;;;15.51;100.00;97843.78;5027199;28;20075;-66
2022/07/19 02:59:53;;;;;;;3.78;1.25;;;16.20;99.90;;;15.49;100.00;97845.63;5026897;28;20045;-66
2022/07/19 03:02:20;;;;;;;5.13;1.60;;;16.20;99.90;;;15.31;100.00;97844.09;5026114;28;20053;-66
2022/07/19 03:04:47;;;;;;;2.63;1.33;;;16.20;99.90;;;15.39;100.00;97839.22;5024550;28;20787;-65
2022/07/19 03:07:21;;;;;;;2.80;1.40;;;16.10;99.90;;;15.47;100.00;97834.41;5025990;28;20084;-66
2022/07/19 03:09:48;;;;;;;3.70;1.65;;;16.10;99.90;;;15.38;100.00;97840.19;5027155;28;20425;-65
2022/07/19 03:12:15;;;;;;;2.88;1.30;;;16.10;99.90;;;15.33;100.00;97835.22;5027233;28;20061;-66
2022/07/19 03:14:42;;;;;;;3.75;1.33;;;16.00;99.90;;;15.48;100.00;97828.22;5008297;28;20511;-66
2022/07/19 03:17:12;;;;;;;3.97;1.40;;;16.00;99.90;;;15.31;100.00;97833.63;5026805;28;20055;-66
2022/07/19 03:19:39;;;;;;;8.05;1.58;;;16.00;99.90;;;15.24;100.00;97833.13;5025782;28;20087;-65
2022/07/19 03:22:06;;;;;;;2.50;1.30;;;16.00;99.90;;;15.17;100.00;97839.66;5026209;28;20463;-65
2022/07/19 03:24:33;;;;;;;7.43;1.63;;;15.90;99.90;;;15.04;100.00;97839.47;5027196;28;20124;-66
2022/07/19 03:27:09;;;;;;;4.57;1.20;;;15.90;99.90;;;15.16;100.00;97833.53;5026033;28;20140;-65
2022/07/19 03:29:36;;;;;;;3.05;1.48;;;15.90;99.90;;;15.10;100.00;97833.06;5025349;28;20136;-64
2022/07/19 03:32:04;;;;;;;3.28;1.40;;;15.80;99.90;;;15.08;100.00;97832.31;5026314;28;20073;-65
2022/07/19 03:34:31;;;;;;;9.02;1.70;;;15.80;99.90;;;15.09;100.00;97829.59;5026153;28;20052;-66
2022/07/19 03:36:58;;;;;;;3.67;1.50;;;15.80;99.90;;;15.00;100.00;97830.97;5028735;28;20140;-67
2022/07/19 03:39:25;;;;;;;5.45;1.55;;;15.80;99.90;;;14.98;100.00;97832.81;5024505;28;20133;-66
2022/07/19 03:41:52;;;;;;;4.15;1.42;;;15.70;99.90;;;14.82;100.00;97838.09;5026575;28;20041;-66
2022/07/19 03:44:26;;;;;;;6.30;1.20;;;15.70;99.90;;;14.52;100.00;97837.94;5024157;28;20638;-67
2022/07/19 03:46:53;;;;;;;7.68;1.50;;;15.70;99.90;;;14.68;100.00;97837.97;5024308;28;20129;-67
2022/07/19 03:49:20;;;;;;;3.40;1.40;;;15.60;99.90;;;14.84;100.00;97837.97;5023603;28;20072;-66
2022/07/19 03:51:49;;;;;;;8.48;1.85;;;15.60;99.90;;;14.64;100.00;97837.34;5026132;28;20083;-66
2022/07/19 03:54:16;;;;;;;8.27;1.40;;;15.50;99.90;;;14.80;100.00;97839.06;5024059;28;20046;-63
2022/07/19 03:56:43;;;;;;;16.55;2.28;;;15.50;99.90;;;14.83;100.00;97846.75;5025750;28;20132;-66
2022/07/19 03:59:10;;;;;;;8.70;1.63;;;15.50;99.90;;;14.57;100.00;97843.81;5023521;28;20081;-67
2022/07/19 04:01:37;;;;;;;4.13;1.30;;;15.50;99.90;;;14.58;100.00;97853.31;5026242;28;20451;-67
2022/07/19 04:04:08;;;;;;;5.07;1.45;;;15.40;99.90;;;14.70;100.00;97846.59;5026937;28;20065;-66
2022/07/19 04:06:38;;;;;;;5.07;1.60;;;;;;;14.86;100.00;97854.41;5030546;28;20041;-63
2022/07/19 04:09:05;;;;;;;5.40;1.27;;;15.50;99.90;;;15.00;100.00;97849.25;5028943;28;20384;-62
2022/07/19 04:11:32;;;;;;;6.22;1.45;;;15.60;99.90;;;14.88;100.00;97849.13;5030629;28;20076;-65
2022/07/19 04:14:02;;;;;;;5.15;1.27;;;15.60;99.90;;;14.98;100.00;97845.88;5028887;28;20057;-65
2022/07/19 04:16:30;;;;;;;4.07;1.55;;;15.60;99.90;;;14.95;100.00;97843.44;5029913;28;20126;-63
2022/07/19 04:18:57;;;;;;;4.43;1.50;;;15.60;99.90;;;14.89;100.00;97856.00;5027994;28;20073;-64
2022/07/19 04:21:24;;;;;;;6.05;1.35;;;15.70;99.90;;;15.06;100.00;97846.31;5029103;28;20472;-64
2022/07/19 04:23:51;;;;;;;7.53;1.58;;;15.70;99.90;;;15.21;100.00;97854.19;5028557;28;20138;-65
2022/07/19 04:26:18;;;;;;;3.05;1.50;;;15.80;99.90;;;15.25;100.00;97851.31;5029154;28;20593;-64
2022/07/19 04:28:49;;;;;;;6.05;1.38;;;15.80;99.90;;;15.25;100.00;97845.25;5027933;28;20132;-65
2022/07/19 04:31:21;;;;;;;3.30;1.63;;;15.90;99.90;;;15.19;100.00;97848.22;5027007;28;20072;-63
2022/07/19 04:33:49;;;;;;;5.30;1.60;;;15.80;99.90;;;15.20;100.00;97852.53;5027327;28;20045;-65
2022/07/19 04:36:16;;;;;;;6.43;1.52;;;15.90;99.90;;;15.31;100.00;97844.91;5029738;28;20101;-63
2022/07/19 04:38:43;;;;;;;4.75;1.48;;;16.00;99.90;;;15.52;100.00;97840.22;5029040;28;20500;-65
2022/07/19 04:41:10;;;;;;;4.13;1.50;;;16.10;99.90;;;15.50;100.00;97841.22;5028630;28;20084;-63
2022/07/19 04:43:37;;;;;;;6.43;1.55;;;16.10;99.90;;;15.46;100.00;97846.66;5028591;28;20406;-64
2022/07/19 04:46:04;;;;;;;3.38;1.23;;;16.20;99.90;;;15.60;100.00;97851.09;5010012;28;20112;-64
2022/07/19 04:48:34;;;;;;;3.22;1.30;;;16.30;99.90;;;15.68;100.00;97842.78;5026777;28;20049;-65
2022/07/19 04:51:01;;;;;;;4.22;1.25;;;16.40;99.90;;;15.72;100.00;97846.94;5027193;28;20152;-65
2022/07/19 04:53:28;;;;;;;3.35;1.35;;;16.50;99.90;;;15.80;100.00;97852.53;5009311;28;20424;-64
2022/07/19 04:55:55;;;;;;;3.72;1.30;;;16.50;99.90;;;15.75;100.00;97851.97;5029240;28;20104;-65
2022/07/19 04:58:25;;;;;;;2.38;1.40;;;16.50;99.90;;;15.85;100.00;97844.41;5008975;28;20053;-65
2022/07/19 05:00:52;;;;;;;3.58;1.63;;;16.60;99.90;;;15.95;100.00;97840.31;5010621;28;20075;-64
2022/07/19 05:03:19;;;;;;;4.50;1.55;;;16.70;99.90;;;16.08;100.00;97838.66;5025652;28;20045;-64
2022/07/19 05:05:46;;;;;;;2.75;1.20;;;16.80;99.90;;;16.17;100.00;97836.38;5029086;28;20573;-65
2022/07/19 05:08:17;;;;;;;3.38;1.40;;;16.90;99.90;;;16.33;100.00;97839.78;5026744;28;20064;-64
2022/07/19 05:10:44;;;;;;;4.93;1.40;;;17.00;99.90;;;16.33;100.00;97834.53;5041666;28;20081;-65
2022/07/19 05:13:12;;;;;;;5.65;1.45;;;17.10;99.90;;;16.39;100.00;97838.53;5011449;28;20453;-65
2022/07/19 05:15:41;;;;;;;5.45;1.50;;;17.10;99.90;;;16.55;100.00;97836.63;5028353;28;20477;-64
2022/07/19 05:18:11;;;;;;;3.40;1.77;;;17.30;99.90;;;16.77;100.00;97841.38;5027267;28;20056;-63
2022/07/19 05:20:38;;;;;;;5.40;1.70;;;17.40;99.90;;;16.94;100.00;97845.56;5028044;28;20501;-64
2022/07/19 05:23:07;;;;;;;3.22;1.40;;;17.50;99.90;;;17.09;100.00;97841.97;5028535;28;20077;-65
2022/07/19 05:25:34;;;;;;;2.75;1.50;;;17.60;99.90;;;17.30;100.00;97839.72;5028373;28;20049;-65
2022/07/19 05:28:12;;;;;;;2.85;1.17;;;17.80;99.90;;;17.38;100.00;97847.09;5027447;28;20111;-64
2022/07/19 05:30:41;;;;;;;6.07;1.30;;;18.00;99.90;;;17.43;100.00;97850.25;5028065;28;20156;-64
2022/07/19 05:33:08;;;;;;;3.05;1.08;;;18.10;99.90;;;17.45;100.00;97850.16;5028760;28;20052;-65
2022/07/19 05:35:36;;;;;;;1.92;1.10;;;18.20;99.90;;;17.68;100.00;97843.38;5025873;28;20396;-64
2022/07/19 05:38:03;;;;;;;7.07;1.30;;;18.40;99.90;;;17.88;100.00;97845.53;5027994;28;20156;-65
2022/07/19 05:40:34;;;;;;;6.32;1.20;;;18.70;99.90;;;18.05;100.00;97846.16;5027718;28;20136;-64
2022/07/19 05:43:04;;;;;;;6.22;1.35;;;18.90;99.90;;;18.39;100.00;97847.28;5027047;28;20061;-65
2022/07/19 05:45:31;;;;;;;4.55;1.33;;;19.10;99.90;;;18.59;100.00;97838.00;5028248;28;20136;-64
2022/07/19 05:47:57;;;;;;;8.68;1.48;;;19.30;99.90;;;18.69;100.00;97841.63;5027716;28;20053;-65
2022/07/19 05:50:24;;;;;;;2.90;1.08;;;19.50;99.90;;;18.95;100.00;97847.69;5026553;28;20144;-65
2022/07/19 05:52:51;;;;;;;7.03;1.33;;;19.80;99.90;;;19.27;100.00;97841.84;5028979;28;20572;-65
2022/07/19 05:55:18;;;;;;;6.93;1.20;;;19.90;99.90;;;19.48;100.00;97844.69;5028018;28;20050;-65
2022/07/19 05:57:46;;;;;;;3.08;1.10;;;20.20;99.90;;;19.74;100.00;97836.66;5027634;28;20107;-64
2022/07/19 06:00:14;;;;;;;2.75;1.00;;;20.30;99.90;;;19.90;100.00;97838.97;5025411;28;20140;-65
2022/07/19 06:02:44;;;;;;;4.10;1.10;;;20.60;99.90;;;20.03;100.00;97844.97;5027618;28;20072;-64
2022/07/19 06:05:11;;;;;;;2.75;1.08;;;20.80;99.90;;;20.24;100.00;97845.09;5027977;28;20420;-64
2022/07/19 06:07:38;;;;;;;2.75;1.10;;;21.00;99.90;;;20.51;100.00;97838.63;5022019;28;20045;-65
2022/07/19 06:10:06;;;;;;;6.05;1.33;;;21.30;99.90;;;20.73;100.00;97837.78;5024940;28;20057;-65
2022/07/19 06:12:39;;;;;;;2.35;0.90;;;21.50;99.90;;;20.95;100.00;97837.75;5026523;28;20125;-65
2022/07/19 06:15:06;;;;;;;3.05;1.10;;;21.80;99.90;;;21.19;100.00;97845.47;5024925;28;20216;-63
2022/07/19 06:17:34;;;;;;;1.58;0.80;;;22.00;99.90;;;21.36;100.00;97843.25;5024478;28;20037;-64
2022/07/19 06:20:05;;;;;;;6.43;1.00;;;22.30;99.90;;;21.66;100.00;97842.53;5022069;28;20051;-65
2022/07/19 06:22:34;;;;;;;6.82;1.20;;;22.50;99.90;;;21.79;100.00;97843.19;5026697;28;20477;-63
2022/07/19 06:25:06;;;;;;;2.40;1.10;;;22.70;99.90;;;21.99;100.00;97843.31;5027560;28;20085;-65
2022/07/19 06:27:33;;;;;;;;;;;22.80;99.90;;;22.21;100.00;97845.78;5024227;28;20077;-64
2022/07/19 06:30:02;;;;;;;2.33;1.27;;;23.10;99.90;;;22.42;100.00;97840.50;5027121;28;20468;-65
2022/07/19 06:32:29;;;;;;;4.22;0.90;;;23.30;99.90;;;22.72;100.00;97838.78;5027077;28;20077;-66
2022/07/19 06:34:59;;;;;;;5.47;0.95;;;23.60;99.90;;;22.96;100.00;97836.56;5026951;28;20048;-65
2022/07/19 06:37:26;;;;;;;1.98;0.68;;;23.90;99.90;;;23.17;100.00;97833.88;5027516;28;20072;-65
2022/07/19 06:39:53;;;;;;;2.45;0.88;;;24.10;99.90;;;23.39;100.00;97834.56;5026852;28;20068;-64
2022/07/19 06:42:20;;;;;;;2.42;0.75;;;24.30;99.20;;;23.59;100.00;97832.75;5027502;28;20128;-65
2022/07/19 06:44:47;;;;;;;2.33;0.80;;;24.50;97.90;;;23.79;100.00;97833.59;5027901;28;20161;-64
2022/07/19 06:47:17;;;;;;;4.15;0.85;;;24.70;97.20;;;23.95;100.00;97831.19;5027010;28;20136;-65
2022/07/19 06:49:47;;;;;;;6.45;0.80;;;25.00;96.80;;;24.14;100.00;97835.56;5024776;28;20045;-65
2022/07/19 06:52:14;;;;;;;2.47;0.80;;;25.20;95.90;;;24.29;100.00;97837.75;5026961;28;20500;-65
2022/07/19 06:54:41;;;;;;;4.93;1.02;;;25.40;94.60;;;24.47;100.00;97837.81;5026926;28;20077;-65
2022/07/19 06:57:08;;;;;;;4.68;1.20;;;25.60;94.20;;;24.71;100.00;97843.47;5027526;28;20104;-65
2022/07/19 06:59:38;;;;;;;4.32;1.10;;;25.70;93.60;;;24.96;100.00;97835.78;5026756;28;20049;-65
2022/07/19 07:02:05;;;;;;;4.20;0.95;;;25.90;93.30;;;25.16;100.00;97833.84;5027110;28;20084;-65
2022/07/19 07:04:33;;;;;;;4.80;1.65;;;26.10;93.20;;;25.06;100.00;97836.53;5027426;28;20041;-66
2022/07/19 07:07:11;;;;;;;3.35;1.02;;;26.10;92.60;;;25.18;100.00;97834.50;5025272;28;20056;-65
2022/07/19 07:09:38;;;;;;;5.22;1.35;;;26.30;93.00;;;25.23;100.00;97834.94;5014220;28;20160;-66
2022/07/19 07:12:08;;;;;;;4.55;1.00;;;26.30;92.30;;;25.34;100.00;97836.50;5009027;28;20704;-66
2022/07/19 07:14:35;;;;;;;6.07;1.40;;;26.30;92.20;;;25.48;100.00;97830.66;5026333;28;20109;-65
2022/07/19 07:17:02;;;;;;;2.55;1.20;;;26.40;91.90;;;25.68;100.00;97841.94;5025675;28;20505;-66
2022/07/19 07:19:30;;;;;;;3.00;1.20;;;26.60;91.90;;;25.62;100.00;97837.25;5026223;28;20115;-65
2022/07/19 07:22:02;;;;;;;3.45;1.10;;;26.60;91.20;;;25.77;100.00;97832.22;5026497;28;20100;-65
2022/07/19 07:24:30;;;;;;;2.92;1.20;;;26.50;90.40;;;25.80;100.00;97827.44;5025901;28;20049;-64
2022/07/19 07:26:57;;;;;;;5.70;1.20;;;26.70;90.90;;;25.92;100.00;97828.03;5026058;28;20049;-66
2022/07/19 07:29:24;;;;;;;4.93;1.30;;;26.80;91.20;;;26.03;100.00;97825.13;5025700;28;20464;-65
2022/07/19 07:31:51;;;;;;;7.78;1.40;;;26.90;90.80;;;26.20;100.00;97826.03;5026825;28;20042;-65
2022/07/19 07:34:21;;;;;;;4.22;1.15;;;27.00;91.10;;;26.40;100.00;97829.28;5025207;28;20075;-65
2022/07/19 07:36:48;;;;;;;3.22;1.27;;;27.20;91.30;;;26.51;100.00;97825.53;5026336;28;20077;-66
2022/07/19 07:39:20;;;;;;;3.45;1.42;;;27.30;91.30;;;26.58;100.00;97833.75;5027005;28;20097;-66
2022/07/19 07:41:48;;;;;;;4.32;1.25;;;27.40;90.50;;;26.59;100.00;97824.75;5030376;28;20072;-65
2022/07/19 07:44:33;;;;;;;4.45;1.52;;;27.50;89.50;;;26.75;100.00;97819.47;5028818;28;20052;-66
2022/07/19 07:47:00;;;;;;;5.25;1.40;;;27.60;90.00;;;26.87;100.00;97823.53;5030195;28;20144;-65
2022/07/19 07:49:27;;;;;;;5.97;1.80;;;27.70;90.20;;;26.85;100.00;97820.19;5027928;28;20132;-65
2022/07/19 07:51:54;;;;;;;6.15;1.40;;;27.70;88.40;;;27.06;100.00;97825.06;5029677;28;20053;-65
2022/07/19 07:54:22;;;;;;;4.10;1.63;;;27.80;89.60;;;27.09;100.00;97813.22;5029326;28;20049;-66
2022/07/19 07:56:49;;;;;;;7.32;1.77;;;27.80;87.90;;;27.07;100.00;97816.09;5029375;28;20103;-66
2022/07/19 07:59:16;;;;;;;3.70;1.40;;;27.90;87.60;;;27.20;100.00;97812.94;5028930;28;20049;-65
2022/07/19 08:01:44;;;;;;;4.68;1.45;;;28.00;88.10;;;27.24;100.00;97814.28;5029798;28;20124;-66
2022/07/19 08:04:11;;;;;;;7.32;1.55;;;28.00;87.30;;;27.39;100.00;97806.47;5007413;28;20538;-66
2022/07/19 08:06:41;;;;;;;5.95;1.70;;;28.10;87.70;;;27.39;100.00;97806.47;5027828;28;20353;-66
2022/07/19 08:09:08;;;;;;;4.72;1.30;;;28.20;87.40;;;27.69;100.00;97801.47;5029452;28;20578;-66
2022/07/19 08:11:35;;;;;;;3.05;1.20;;;28.40;87.60;;;27.97;100.00;97795.78;5012050;28;20049;-65
2022/07/19 08:14:03;;;;;;;4.63;1.60;;;28.50;85.60;;;28.22;100.00;97804.56;5028827;28;20057;-66
2022/07/19 08:16:30;;;;;;;5.72;1.40;;;28.80;84.60;;;28.45;100.00;97808.13;5011927;28;20041;-65
2022/07/19 08:18:58;;;;;;;3.58;1.20;;;29.00;91.10;;;28.49;100.00;97808.66;5027120;28;20046;-65
2022/07/19 08:21:27;;;;;;;5.72;1.33;;;29.20;92.00;;;28.60;100.00;97810.09;5028820;28;20160;-65
2022/07/19 08:23:57;;;;;;;3.05;1.20;;;29.30;81.40;;;28.70;100.00;97806.22;5028000;28;20128;-65
2022/07/19 08:26:27;;;;;;;5.70;1.10;;;29.40;82.30;;;29.05;100.00;97808.53;5025775;28;20050;-65
2022/07/19 08:28:53;;;;;;;4.50;1.35;;;29.60;82.70;;;29.25;100.00;97808.94;5027401;28;20222;-66
2022/07/19 08:31:20;;;;;;;6.53;2.05;;;29.70;82.90;;;29.20;100.00;97801.44;5028838;28;20423;-65
2022/07/19 08:33:48;;;;;;;5.10;1.30;;;29.90;79.60;;;29.32;100.00;97807.19;5025743;28;20374;-66
2022/07/19 08:36:15;;;;;;;6.97;1.23;;;30.00;80.50;;;29.20;100.00;97801.44;5010477;28;20135;-66
2022/07/19 08:38:42;;;;;;;3.88;1.25;;;30.20;79.80;;;29.64;100.00;97807.94;5027254;28;20124;-65
2022/07/19 08:41:10;;;;;;;3.80;1.20;;;30.30;77.80;;;29.81;100.00;97802.31;5028623;28;20081;-65
2022/07/19 08:43:37;;;;;;;3.97;1.13;;;30.50;79.90;;;30.02;100.00;97796.22;5028037;28;20041;-68
2022/07/19 08:46:07;;;;;;;6.88;1.00;;;30.70;78.10;;;30.43;100.00;97792.28;5027884;28;20096;-65
2022/07/19 08:48:36;;;;;;;1.63;0.80;;;30.90;77.50;;;30.62;96.29;97797.06;5027925;28;20037;-66
2022/07/19 08:51:13;;;;;;;4.28;0.82;;;31.20;74.70;;;30.72;90.48;97804.78;5028250;28;20111;-64
2022/07/19 08:53:40;;;;;;;1.77;0.82;;;31.30;71.20;;;30.77;84.10;97799.72;5009231;28;20111;-66
2022/07/19 08:58:53;;;;;;;3.33;0.73;;;31.70;69.30;;;31.48;81.03;97793.69;5027813;28;20628;-66
2022/07/19 09:01:21;;;;;;;7.65;1.33;;;32.00;67.90;;;31.74;76.51;97797.59;5028167;28;20685;-65
2022/07/19 09:04:15;;;;;;;1.92;0.70;;;32.20;66.10;;;32.02;76.92;97787.72;5027492;28;20050;-65
2022/07/19 09:06:46;;;;;;;2.97;0.70;;;32.70;66.80;;;32.17;69.59;97800.19;5009557;28;20099;-66
2022/07/19 09:09:21;;;;;;;4.82;0.70;;;32.60;63.90;;;32.10;68.23;97792.09;5024941;28;20125;-66
2022/07/19 09:11:52;;;;;;;2.78;0.73;;;32.80;64.40;;;32.48;67.61;97795.19;5025682;28;20077;-65
2022/07/19 09:14:29;;;;;;;2.15;0.63;;;33.20;89.70;;;33.17;68.87;97790.72;5028102;28;20077;-66
2022/07/19 09:17:16;;;;;;;3.00;0.90;;;33.50;92.60;;;32.81;63.25;97796.38;5027607;28;20057;-65
2022/07/19 09:19:49;;;;;;;3.65;1.00;;;33.50;61.50;;;33.45;62.21;97789.69;5023923;28;20484;-66
2022/07/19 09:22:19;;;;;;;2.13;0.70;;;33.70;61.40;;;33.49;60.13;97791.75;5009902;28;20128;-65
2022/07/19 09:24:49;;;;;;;4.88;0.70;;;33.80;61.10;;;33.50;60.66;97787.22;5025921;28;20053;-66
2022/07/19 09:27:27;;;;;;;2.63;0.65;;;33.90;61.30;;;34.37;62.31;97785.25;5009312;28;20587;-65
2022/07/19 09:29:57;;;;;;;9.13;0.80;;;34.10;62.50;;;34.41;57.47;97782.97;5025356;28;20615;-66
2022/07/19 09:32:26;;;;;;;5.03;0.70;;;34.30;61.00;;;34.65;54.00;97779.59;5026960;28;20069;-66
2022/07/19 09:35:03;;;;;;;3.28;0.80;;;34.50;59.50;;;34.52;52.15;97788.53;5025039;28;20061;-65
2022/07/19 09:37:38;;;;;;;3.25;0.88;;;;;;;35.75;55.51;97778.50;5026422;28;20116;-66
2022/07/19 09:40:09;;;;;;;1.30;0.50;;;35.00;60.00;;;36.40;50.56;97772.63;5026303;28;20079;-66
2022/07/19 09:42:40;;;;;;;3.60;0.85;;;35.20;59.70;;;35.35;46.77;97778.78;5025940;28;20049;-66
2022/07/19 09:45:13;;;;;;;5.93;0.80;;;35.30;57.90;;;34.12;47.86;97769.81;5022790;28;20080;-66
2022/07/19 09:47:46;;;;;;;3.00;0.80;;;34.80;56.40;;;33.85;47.12;97782.47;5024472;28;20183;-66
2022/07/19 09:50:21;;;;;;;2.92;0.70;;;34.70;56.80;;;34.40;48.07;97771.38;5025027;28;20064;-65
2022/07/19 09:52:50;;;;;;;2.22;1.02;;;34.40;57.50;;;34.55;47.70;97773.78;5027194;28;20049;-66
2022/07/19 09:55:19;;;;;;;2.60;0.68;;;34.60;57.40;;;34.90;46.48;97768.06;5025640;28;20447;-65
2022/07/19 09:57:50;;;;;;;3.53;0.55;;;34.60;57.10;;;35.25;44.59;97768.47;5024778;28;20500;-66
2022/07/19 10:00:22;;;;;;;3.80;0.88;;;34.50;56.70;;;35.34;44.71;97771.75;5006258;28;20503;-66
2022/07/19 10:03:01;;;;;;;3.03;0.60;;;34.70;57.50;;;35.72;45.22;97774.38;5024297;28;20077;-67
2022/07/19 10:05:30;;;;;;;1.50;0.70;;;35.10;57.40;;;35.28;42.18;97765.34;5026292;28;20045;-65
2022/07/19 10:07:58;;;;;;;3.67;0.60;;;35.20;55.60;;;36.82;42.96;97761.94;5025857;28;20072;-66
2022/07/19 10:10:30;;;;;;;1.88;0.75;;;35.30;56.90;;;36.66;39.08;97763.41;5026023;28;20084;-65
2022/07/19 10:12:57;;;;;;;5.90;1.25;;;35.60;55.20;;;38.05;41.27;97767.72;5026956;28;20045;-66
2022/07/19 10:15:26;;;;;;;5.28;1.17;;;36.00;56.70;;;36.84;37.94;97768.75;5026212;28;20119;-66
2022/07/19 10:18:10;;;;;;;2.38;0.63;;;36.00;54.40;;;36.71;38.00;97751.91;5024380;28;20063;-66
2022/07/19 10:20:39;;;;;;;2.65;0.60;;;36.10;54.70;;;36.66;37.60;97768.00;5025449;28;20471;-67
2022/07/19 10:23:06;;;;;;;2.33;0.52;;;36.00;54.20;;;37.64;38.43;97753.22;5004142;28;20117;-66
2022/07/19 10:25:46;;;;;;;4.38;0.70;;;36.10;55.10;;;38.06;37.32;97743.06;5007511;28;20077;-66